Time;durP1;ratioP1;P1;durP2;ratioP2;P2;SDS_P1;SDS_P2;PMS_P1;PMS_P2;Temp;Humidity;BMP_temperature;BMP_pressure;BME280_temperature;BME280_humidity;BME280_pressure;Samples;Min_cycle;Max_cycle;Signal;HPM_P1;HPM_P2
2022/06/21 00:00:44;;;;;;;71.40;57.08;;;27.80;1.00;;;;;;5152699;27;20349;-51
2022/06/21 00:03:20;;;;;;;52.25;42.70;;;27.90;1.00;;;;;;5152564;27;20034;-49
2022/06/21 00:05:48;;;;;;;24.05;20.13;;;27.80;1.00;;;;;;5154683;27;20022;-53
2022/06/21 00:08:17;;;;;;;18.25;16.23;;;27.70;1.00;;;;;;5153826;27;20435;-51
2022/06/21 00:10:44;;;;;;;39.50;29.58;;;27.50;1.00;;;;;;5153118;27;20047;-51
2022/06/21 00:13:20;;;;;;;61.97;47.55;;;27.50;1.00;;;;;;5154501;27;20047;-50
2022/06/21 00:15:50;;;;;;;12.00;9.05;;;27.70;1.00;;;;;;5153578;27;20027;-52
2022/06/21 00:18:18;;;;;;;5.53;4.60;;;27.40;1.00;;;;;;5152731;27;20469;-50
2022/06/21 00:20:44;;;;;;;19.50;14.52;;;27.60;1.00;;;;;;5151785;27;20028;-50
2022/06/21 00:23:19;;;;;;;13.63;11.18;;;27.30;1.00;;;;;;5153788;27;20031;-49
2022/06/21 00:25:46;;;;;;;15.20;13.23;;;27.40;1.00;;;;;;5153367;27;20413;-50
2022/06/21 00:28:13;;;;;;;9.85;8.00;;;27.40;1.00;;;;;;5154498;27;20030;-52
2022/06/21 00:30:39;;;;;;;22.20;14.95;;;27.30;1.00;;;;;;5151603;27;20099;-50
2022/06/21 00:33:11;;;;;;;45.00;34.28;;;27.30;1.00;;;;;;5154456;27;20055;-52
2022/06/21 00:35:37;;;;;;;13.88;11.15;;;27.40;1.00;;;;;;5152796;27;20018;-49
2022/06/21 00:38:03;;;;;;;50.50;41.08;;;27.40;1.00;;;;;;5140634;27;20027;-52
2022/06/21 00:40:32;;;;;;;27.35;23.65;;;27.70;1.00;;;;;;5150532;27;20030;-50
2022/06/21 00:43:14;;;;;;;50.67;40.88;;;27.40;1.00;;;;;;5141983;27;20388;-49
2022/06/21 00:45:43;;;;;;;76.68;63.22;;;27.70;1.00;;;;;;5147196;27;20445;-51
2022/06/21 00:48:13;;;;;;;34.60;29.23;;;27.50;1.00;;;;;;5154078;27;20019;-51
2022/06/21 00:50:44;;;;;;;7.63;6.88;;;27.70;1.00;;;;;;5146709;27;20033;-49
2022/06/21 00:53:12;;;;;;;18.55;15.07;;;27.60;1.00;;;;;;5153958;27;20122;-51
2022/06/21 00:55:56;;;;;;;14.90;10.57;;;27.30;1.00;;;;;;5152877;27;20106;-49
2022/06/21 00:58:25;;;;;;;179.00;132.10;;;27.40;1.00;;;;;;5152625;27;20063;-48
2022/06/21 01:01:12;;;;;;;14.05;9.15;;;27.50;1.00;;;;;;5149670;27;20036;-52
2022/06/21 01:03:56;;;;;;;5.78;4.75;;;27.40;1.00;;;;;;5143992;27;20031;-46
2022/06/21 01:06:33;;;;;;;6.38;3.78;;;27.70;1.00;;;;;;5145648;27;20022;-48
2022/06/21 01:09:12;;;;;;;4.32;3.90;;;27.50;1.00;;;;;;5153481;27;20018;-47
2022/06/21 01:15:22;;;;;;;5.88;4.57;;;27.60;1.00;;;;;;5149020;27;20127;-46
2022/06/21 01:17:50;;;;;;;6.57;4.38;;;27.30;1.00;;;;;;5152913;27;20421;-46
2022/06/21 01:20:22;;;;;;;5.07;4.35;;;27.50;1.00;;;;;;5153237;27;20023;-45
2022/06/21 01:23:08;;;;;;;4.78;4.38;;;27.40;1.00;;;;;;5152748;27;20071;-46
2022/06/21 01:26:16;;;;;;;7.50;4.35;;;27.50;1.00;;;;;;5131911;27;20027;-46
2022/06/21 01:28:43;;;;;;;4.93;3.85;;;27.30;1.00;;;;;;5135226;27;20396;-46
2022/06/21 01:31:08;;;;;;;6.78;4.38;;;27.40;1.00;;;;;;5152982;27;20030;-47
2022/06/21 01:33:38;;;;;;;5.10;4.13;;;27.20;1.00;;;;;;5141746;27;20027;-50
2022/06/21 01:36:23;;;;;;;4.78;4.15;;;27.30;1.00;;;;;;5153449;27;20023;-49
2022/06/21 01:38:54;;;;;;;5.22;4.15;;;27.40;1.00;;;;;;5147020;27;20169;-45
2022/06/21 01:41:26;;;;;;;6.57;4.32;;;27.40;1.00;;;;;;5148691;27;20534;-47
2022/06/21 01:43:56;;;;;;;4.85;4.32;;;27.30;1.00;;;;;;5148993;27;20038;-47
2022/06/21 01:46:28;;;;;;;4.50;4.10;;;27.30;1.00;;;;;;5140580;27;20023;-48
2022/06/21 01:49:00;;;;;;;7.55;4.10;;;27.30;1.00;;;;;;5148055;27;20027;-48
2022/06/21 01:51:51;;;;;;;7.70;4.30;;;27.30;1.00;;;;;;5148182;27;20034;-48
2022/06/21 01:54:20;;;;;;;5.10;4.20;;;27.30;1.00;;;;;;5138710;27;20920;-46
2022/06/21 01:56:46;;;;;;;4.35;3.95;;;27.10;1.00;;;;;;5140505;27;20050;-46
2022/06/21 01:59:33;;;;;;;7.20;4.47;;;27.00;1.00;;;;;;5153062;27;20035;-46
2022/06/21 02:02:01;;;;;;;6.30;3.95;;;27.00;1.00;;;;;;5150641;27;20374;-46
2022/06/21 02:04:31;;;;;;;4.78;4.13;;;27.30;1.00;;;;;;5153082;27;20025;-46
2022/06/21 02:07:02;;;;;;;5.28;4.35;;;27.00;1.00;;;;;;5151480;27;20027;-47
2022/06/21 02:09:34;;;;;;;5.22;4.53;;;26.90;1.00;;;;;;5140246;27;20035;-46
2022/06/21 02:12:07;;;;;;;7.07;4.18;;;26.90;1.00;;;;;;5149435;27;20031;-46
2022/06/21 02:14:50;;;;;;;8.43;4.45;;;27.00;1.00;;;;;;5152333;27;20733;-46
2022/06/21 02:17:29;;;;;;;4.88;4.38;;;26.90;1.00;;;;;;5155917;27;20040;-48
2022/06/21 02:20:07;;;;;;;4.57;4.07;;;27.20;1.00;;;;;;5156597;27;20026;-46
2022/06/21 02:22:34;;;;;;;4.75;4.35;;;27.20;1.00;;;;;;5156010;27;20054;-47
2022/06/21 02:25:01;;;;;;;4.15;3.72;;;27.00;1.00;;;;;;5156907;27;20349;-47
2022/06/21 02:27:32;;;;;;;6.97;4.30;;;26.90;1.00;;;;;;5155789;27;20090;-50
2022/06/21 02:30:01;;;;;;;4.45;4.05;;;27.10;1.00;;;;;;5143259;27;20027;-46
2022/06/21 02:32:28;;;;;;;5.25;4.38;;;26.80;1.00;;;;;;5148125;27;20419;-46
2022/06/21 02:35:03;;;;;;;4.00;3.70;;;27.00;1.00;;;;;;5145746;27;20034;-50
2022/06/21 02:37:30;;;;;;;7.38;4.30;;;27.00;1.00;;;;;;5155736;27;20046;-50
2022/06/21 02:40:00;;;;;;;4.68;4.13;;;26.90;1.00;;;;;;5156554;27;20026;-47
2022/06/21 02:42:31;;;;;;;7.07;4.00;;;26.90;1.00;;;;;;5155723;27;20031;-50
2022/06/21 02:45:06;;;;;;;4.78;4.18;;;26.90;1.00;;;;;;5152257;27;20030;-52
2022/06/21 02:47:41;;;;;;;4.50;4.10;;;27.00;1.00;;;;;;5148366;27;20476;-50
2022/06/21 02:50:37;;;;;;;4.35;3.88;;;27.10;1.00;;;;;;5156555;27;20067;-51
2022/06/21 02:53:09;;;;;;;6.80;4.30;;;26.90;1.00;;;;;;5147941;27;20072;-50
2022/06/21 02:55:50;;;;;;;5.95;4.10;;;26.70;1.00;;;;;;5156164;27;20030;-48
2022/06/21 02:58:35;;;;;;;4.70;4.30;;;26.80;1.00;;;;;;5154633;27;20463;-50
2022/06/21 03:01:05;;;;;;;5.32;4.07;;;26.80;1.00;;;;;;5155996;27;20019;-50
2022/06/21 03:03:32;;;;;;;6.03;4.35;;;26.80;1.00;;;;;;5143617;27;20027;-50
2022/06/21 03:06:01;;;;;;;5.50;4.35;;;27.00;1.00;;;;;;5153002;27;20042;-48
2022/06/21 03:08:29;;;;;;;5.53;4.60;;;26.80;1.00;;;;;;5153017;27;20422;-50
2022/06/21 03:10:56;;;;;;;7.10;4.90;;;27.00;1.00;;;;;;5139523;27;20122;-51
2022/06/21 03:13:24;;;;;;;6.38;4.35;;;27.00;1.00;;;;;;5147021;27;20353;-46
2022/06/21 03:15:57;;;;;;;4.30;3.88;;;26.80;1.00;;;;;;5148078;27;20026;-47
2022/06/21 03:18:26;;;;;;;6.80;4.40;;;27.10;1.00;;;;;;5154874;27;20023;-48
2022/06/21 03:20:53;;;;;;;4.85;3.85;;;26.80;1.00;;;;;;5155522;27;20050;-46
2022/06/21 03:23:20;;;;;;;5.28;4.18;;;27.00;1.00;;;;;;5154298;27;20031;-51
2022/06/21 03:25:51;;;;;;;6.05;4.85;;;26.90;1.00;;;;;;5155598;27;20452;-46
2022/06/21 03:28:26;;;;;;;8.82;4.63;;;26.80;1.00;;;;;;5154056;27;20030;-49
2022/06/21 03:31:01;;;;;;;4.85;4.43;;;26.70;1.00;;;;;;5155605;27;20021;-47
2022/06/21 03:33:27;;;;;;;4.95;4.55;;;26.70;1.00;;;;;;5154486;27;20068;-48
2022/06/21 03:35:53;;;;;;;9.57;4.70;;;26.90;1.00;;;;;;5155548;27;20114;-46
2022/06/21 03:38:19;;;;;;;5.38;4.45;;;26.50;1.00;;;;;;5153531;27;20487;-47
2022/06/21 03:43:39;;;;;;;11.75;4.93;;;26.80;1.00;;;;;;5149815;27;20091;-46
2022/06/21 03:46:09;;;;;;;8.05;4.55;;;26.80;1.00;;;;;;5154464;27;20026;-50
2022/06/21 03:48:59;;;;;;;7.07;4.07;;;26.60;1.00;;;;;;5139004;27;20038;-50
2022/06/21 03:51:32;;;;;;;4.80;4.28;;;26.70;1.00;;;;;;5155051;27;20029;-48
2022/06/21 03:54:07;;;;;;;8.00;4.20;;;26.80;1.00;;;;;;5153981;27;20019;-47
2022/06/21 03:56:42;;;;;;;6.53;4.10;;;26.80;1.00;;;;;;5154955;27;20022;-49
2022/06/21 03:59:33;;;;;;;6.57;4.15;;;26.70;1.00;;;;;;5139477;27;20046;-48
2022/06/21 04:02:23;;;;;;;5.75;4.25;;;26.60;1.00;;;;;;5152830;27;20042;-47
2022/06/21 04:05:07;;;;;;;7.05;4.07;;;26.70;1.00;;;;;;5154964;27;20126;-53
2022/06/21 04:07:59;;;;;;;4.75;4.25;;;26.80;1.00;;;;;;5153908;27;20072;-46
2022/06/21 04:10:37;;;;;;;7.38;4.00;;;26.80;1.00;;;;;;5154490;27;20095;-50
2022/06/21 04:13:17;;;;;;;5.85;4.57;;;26.70;1.00;;;;;;5145124;27;20392;-52
2022/06/21 04:15:50;;;;;;;5.50;4.05;;;26.90;1.00;;;;;;5154837;27;20063;-47
2022/06/21 04:18:26;;;;;;;5.07;4.38;;;26.80;1.00;;;;;;5147982;27;20023;-46
2022/06/21 04:21:08;;;;;;;5.35;4.40;;;26.80;1.00;;;;;;5154457;27;20253;-49
2022/06/21 04:23:40;;;;;;;5.80;4.60;;;26.80;1.00;;;;;;5153737;27;20034;-47
2022/06/21 04:26:32;;;;;;;8.07;4.55;;;26.60;1.00;;;;;;5154514;27;20067;-51
2022/06/21 04:29:14;;;;;;;6.28;4.40;;;26.90;1.00;;;;;;5153332;27;20018;-47
2022/06/21 04:31:47;;;;;;;6.55;4.68;;;26.60;1.00;;;;;;5154362;27;20026;-49
2022/06/21 04:34:17;;;;;;;5.93;5.03;;;26.70;1.00;;;;;;5153297;27;20035;-46
2022/06/21 04:37:03;;;;;;;4.57;3.88;;;26.70;1.00;;;;;;5154317;27;20126;-46
2022/06/21 04:39:36;;;;;;;5.85;4.38;;;26.50;1.00;;;;;;5140470;27;20431;-46
2022/06/21 04:42:20;;;;;;;4.85;4.32;;;26.70;1.00;;;;;;5141028;27;20053;-49
2022/06/21 04:44:53;;;;;;;9.07;5.05;;;26.80;1.00;;;;;;5143489;27;20031;-47
2022/06/21 04:47:40;;;;;;;5.28;4.07;;;26.80;1.00;;;;;;5137027;27;20023;-46
2022/06/21 04:50:16;;;;;;;5.70;4.07;;;26.90;1.00;;;;;;5151718;27;20049;-48
2022/06/21 04:52:52;;;;;;;5.05;3.75;;;26.70;1.00;;;;;;5151968;27;20046;-46
2022/06/21 04:55:22;;;;;;;4.65;4.25;;;26.80;1.00;;;;;;5145799;27;20087;-50
2022/06/21 04:57:47;;;;;;;8.15;4.00;;;26.80;1.00;;;;;;5153595;27;20045;-46
2022/06/21 05:00:18;;;;;;;5.90;4.25;;;26.90;1.00;;;;;;5149614;27;20064;-46
2022/06/21 05:02:48;;;;;;;4.72;4.13;;;27.00;1.00;;;;;;5133671;27;20035;-47
2022/06/21 05:05:19;;;;;;;7.70;4.07;;;26.80;1.00;;;;;;5141101;27;20614;-46
2022/06/21 05:07:49;;;;;;;7.47;4.25;;;26.70;1.00;;;;;;5138560;27;20353;-46
2022/06/21 05:10:30;;;;;;;6.13;4.05;;;26.60;1.00;;;;;;5152064;27;20176;-47
2022/06/21 05:12:59;;;;;;;5.70;4.57;;;26.60;1.00;;;;;;5153597;27;20030;-49
2022/06/21 05:15:35;;;;;;;5.35;4.03;;;26.70;1.00;;;;;;5152515;27;20035;-46
2022/06/21 05:18:16;;;;;;;6.95;4.85;;;26.70;1.00;;;;;;5153894;27;20030;-49
2022/06/21 05:20:51;;;;;;;5.18;4.20;;;26.80;1.00;;;;;;5145994;27;20015;-47
2022/06/21 05:23:18;;;;;;;7.70;4.57;;;26.90;1.00;;;;;;5146990;27;20023;-45
2022/06/21 05:25:45;;;;;;;6.35;4.45;;;26.90;1.00;;;;;;5150162;27;20031;-47
2022/06/21 05:28:35;;;;;;;5.18;4.38;;;27.10;1.00;;;;;;5150650;27;20019;-47
2022/06/21 05:31:10;;;;;;;8.35;5.07;;;27.00;1.00;;;;;;5145739;27;20031;-45
2022/06/21 05:33:57;;;;;;;5.68;3.97;;;26.90;1.00;;;;;;5147760;27;20037;-49
2022/06/21 05:36:31;;;;;;;10.07;4.20;;;27.10;1.00;;;;;;5142335;27;20041;-46
2022/06/21 05:39:02;;;;;;;5.30;3.97;;;27.10;1.00;;;;;;5151400;27;20111;-45
2022/06/21 05:41:34;;;;;;;6.35;3.92;;;27.00;1.00;;;;;;5140241;27;20039;-46
2022/06/21 05:44:08;;;;;;;8.25;4.65;;;27.00;1.00;;;;;;5152373;27;20019;-47
2022/06/21 05:46:37;;;;;;;5.65;4.05;;;27.20;1.00;;;;;;5153206;27;20031;-47
2022/06/21 05:49:08;;;;;;;8.40;4.65;;;27.00;1.00;;;;;;5148929;27;20139;-48
2022/06/21 05:51:34;;;;;;;5.85;3.95;;;27.00;1.00;;;;;;5154949;27;20250;-46
2022/06/21 05:54:10;;;;;;;4.45;3.95;;;27.30;1.00;;;;;;5155793;27;20023;-48
2022/06/21 05:56:37;;;;;;;5.13;3.83;;;27.20;1.00;;;;;;5150325;27;20475;-52
2022/06/21 05:59:16;;;;;;;5.45;4.25;;;27.20;1.00;;;;;;5150221;27;20015;-50
2022/06/21 06:01:49;;;;;;;6.75;4.72;;;27.30;1.00;;;;;;5136857;27;20084;-51
2022/06/21 06:04:24;;;;;;;6.53;4.57;;;27.40;1.00;;;;;;5141988;27;20126;-49
2022/06/21 06:06:53;;;;;;;10.55;4.97;;;27.20;1.00;;;;;;5151534;27;20280;-48
2022/06/21 06:09:30;;;;;;;5.40;4.40;;;27.40;1.00;;;;;;5140716;27;20034;-46
2022/06/21 06:12:18;;;;;;;6.53;4.53;;;27.30;1.00;;;;;;5150644;27;20020;-48
2022/06/21 06:15:07;;;;;;;13.50;4.78;;;27.30;1.00;;;;;;5149508;27;20027;-48
2022/06/21 06:17:33;;;;;;;9.77;4.75;;;27.40;1.00;;;;;;5156190;27;20056;-61
2022/06/21 06:20:14;;;;;;;6.93;4.55;;;27.30;1.00;;;;;;5155121;27;20022;-63
2022/06/21 06:22:55;;;;;;;6.00;4.32;;;27.40;1.00;;;;;;5155831;27;20054;-63
2022/06/21 06:25:51;;;;;;;5.47;4.15;;;27.50;1.00;;;;;;5155615;27;20551;-63
2022/06/21 06:28:21;;;;;;;6.25;4.53;;;27.40;1.00;;;;;;5156675;27;20118;-62
2022/06/21 06:31:13;;;;;;;6.43;4.45;;;27.20;1.00;;;;;;5155648;27;20022;-61
2022/06/21 06:33:41;;;;;;;5.93;4.22;;;27.50;1.00;;;;;;5156477;27;20094;-59
2022/06/21 06:36:12;;;;;;;8.27;4.63;;;27.50;1.00;;;;;;5155722;27;20035;-60
2022/06/21 06:38:39;;;;;;;5.78;4.47;;;27.40;1.00;;;;;;5156764;27;20061;-58
2022/06/21 06:41:16;;;;;;;7.47;4.25;;;27.50;1.00;;;;;;5154971;27;20034;-60
2022/06/21 06:43:48;;;;;;;5.68;4.10;;;27.50;1.00;;;;;;5157149;27;20027;-64
2022/06/21 06:46:25;;;;;;;7.68;4.30;;;27.50;1.00;;;;;;5156131;27;20058;-61
2022/06/21 06:48:56;;;;;;;7.75;3.85;;;27.40;1.00;;;;;;5148208;27;20028;-65
2022/06/21 06:51:50;;;;;;;8.63;3.95;;;27.60;1.00;;;;;;5153219;27;20027;-62
2022/06/21 06:54:40;;;;;;;6.70;3.88;;;27.50;1.00;;;;;;5125807;27;20491;-64
2022/06/21 06:57:19;;;;;;;4.90;3.78;;;27.40;1.00;;;;;;5146441;27;20030;-63
2022/06/21 06:59:45;;;;;;;7.13;4.32;;;27.50;1.00;;;;;;5156103;27;20026;-60
2022/06/21 07:02:36;;;;;;;6.20;4.38;;;27.40;1.00;;;;;;5152521;27;20031;-61
2022/06/21 07:05:15;;;;;;;4.00;3.63;;;27.60;1.00;;;;;;5149528;27;20416;-61
2022/06/21 07:07:47;;;;;;;5.75;4.00;;;27.50;1.00;;;;;;5148286;27;20083;-63
2022/06/21 07:10:18;;;;;;;9.10;4.10;;;27.50;1.00;;;;;;5151575;27;20509;-64
2022/06/21 07:12:44;;;;;;;8.50;4.80;;;27.50;1.00;;;;;;5156510;27;20034;-65
2022/06/21 07:15:12;;;;;;;5.63;4.30;;;27.70;1.00;;;;;;5140211;27;20461;-56
2022/06/21 07:17:49;;;;;;;8.43;4.45;;;27.70;1.00;;;;;;5156028;27;20098;-52
2022/06/21 07:20:16;;;;;;;5.30;4.28;;;27.80;1.00;;;;;;5153081;27;20383;-55
2022/06/21 07:22:43;;;;;;;10.35;4.10;;;27.80;1.00;;;;;;5155682;27;20039;-53
2022/06/21 07:25:19;;;;;;;5.90;4.63;;;27.80;1.00;;;;;;5154374;27;20093;-54
2022/06/21 07:27:50;;;;;;;6.72;4.70;;;27.90;1.00;;;;;;5150689;27;20042;-53
2022/06/21 07:30:16;;;;;;;9.50;4.72;;;28.00;1.00;;;;;;5141184;27;20030;-55
2022/06/21 07:33:07;;;;;;;8.65;4.05;;;28.00;1.00;;;;;;5154562;27;20094;-53
2022/06/21 07:35:42;;;;;;;5.20;4.43;;;27.90;1.00;;;;;;5142446;27;20031;-55
2022/06/21 07:38:14;;;;;;;5.05;4.55;;;28.00;1.00;;;;;;5124567;27;20015;-54
2022/06/21 07:40:47;;;;;;;7.93;4.50;;;28.20;1.00;;;;;;5153834;27;20420;-54
2022/06/21 07:43:32;;;;;;;7.45;5.45;;;28.00;1.00;;;;;;5151851;27;20027;-55
2022/06/21 07:46:01;;;;;;;10.82;4.40;;;28.20;1.00;;;;;;5144419;27;20026;-54
2022/06/21 07:48:55;;;;;;;5.50;4.38;;;28.40;1.00;;;;;;5166160;27;20404;-55
2022/06/21 07:51:40;;;;;;;12.02;5.15;;;28.40;1.00;;;;;;5138923;27;20392;-53
2022/06/21 07:54:21;;;;;;;8.48;4.65;;;28.30;1.00;;;;;;5155050;27;20065;-54
2022/06/21 07:56:52;;;;;;;10.25;4.35;;;28.40;1.00;;;;;;5141328;27;20081;-51
2022/06/21 07:59:38;;;;;;;5.95;4.68;;;28.40;1.00;;;;;;5152686;27;20026;-52
2022/06/21 08:08:01;;;;;;;4.95;4.47;;;28.60;1.00;;;;;;5140684;27;20552;-55
2022/06/21 08:10:31;;;;;;;7.25;4.70;;;28.40;1.00;;;;;;5153392;27;20042;-51
2022/06/21 08:12:57;;;;;;;5.82;4.43;;;28.40;1.00;;;;;;5154548;27;20019;-55
2022/06/21 08:15:34;;;;;;;5.57;4.63;;;28.40;1.00;;;;;;5153488;27;20369;-53
2022/06/21 08:18:02;;;;;;;10.07;4.57;;;28.80;1.00;;;;;;5154670;27;20380;-50
2022/06/21 08:20:38;;;;;;;9.60;4.43;;;28.60;1.00;;;;;;5140680;27;20145;-51
2022/06/21 08:23:06;;;;;;;10.07;4.40;;;28.70;1.00;;;;;;5153014;27;20461;-50
2022/06/21 08:25:45;;;;;;;8.75;4.85;;;28.70;1.00;;;;;;5142754;27;20031;-52
2022/06/21 08:28:20;;;;;;;7.03;4.35;;;28.90;1.00;;;;;;5153190;27;20030;-51
2022/06/21 08:30:57;;;;;;;6.07;4.82;;;28.90;1.00;;;;;;5148506;27;20449;-53
2022/06/21 08:33:48;;;;;;;7.20;4.97;;;28.90;1.00;;;;;;5153749;27;20030;-50
2022/06/21 08:36:37;;;;;;;10.05;6.03;;;29.00;1.00;;;;;;5138176;27;20062;-52
2022/06/21 08:39:50;;;;;;;8.43;4.72;;;29.00;1.00;;;;;;5153963;27;20533;-54
2022/06/21 08:42:45;;;;;;;7.85;4.57;;;29.00;1.00;;;;;;5060011;28;20040;-52
2022/06/21 08:45:42;;;;;;;6.55;5.15;;;29.10;1.00;;;;;;5153669;27;20091;-54
2022/06/21 08:48:28;;;;;;;10.68;4.88;;;29.10;1.00;;;;;;5152013;27;20033;-53
2022/06/21 08:51:12;;;;;;;10.88;5.35;;;29.20;1.00;;;;;;5153402;27;20030;-54
2022/06/21 08:53:50;;;;;;;6.78;5.13;;;29.20;1.00;;;;;;5153087;27;20023;-51
2022/06/21 08:56:42;;;;;;;7.13;5.55;;;29.40;1.00;;;;;;5152670;27;20484;-52
2022/06/21 08:59:24;;;;;;;6.35;5.00;;;29.40;1.00;;;;;;5142332;27;20014;-53
2022/06/21 09:01:59;;;;;;;10.27;4.97;;;29.40;1.00;;;;;;5148911;27;20070;-53
2022/06/21 09:04:27;;;;;;;8.30;4.88;;;29.50;1.00;;;;;;5150736;27;20021;-53
2022/06/21 09:07:14;;;;;;;5.63;5.07;;;29.50;1.00;;;;;;5145678;27;20026;-54
2022/06/21 09:09:42;;;;;;;9.48;4.95;;;29.50;1.00;;;;;;5143130;27;20441;-56
2022/06/21 09:12:18;;;;;;;8.93;6.18;;;29.60;1.00;;;;;;5150502;27;20015;-52
2022/06/21 09:15:25;;;;;;;8.60;5.00;;;29.60;1.00;;;;;;5137521;27;20063;-53
2022/06/21 09:17:56;;;;;;;6.05;5.38;;;29.60;1.00;;;;;;5104154;28;20341;-56
2022/06/21 09:20:48;;;;;;;9.40;6.70;;;29.60;1.00;;;;;;5132072;27;20467;-54
2022/06/21 09:23:52;;;;;;;6.20;5.00;;;29.90;1.00;;;;;;5131297;27;20057;-56
2022/06/21 09:26:54;;;;;;;10.98;5.07;;;29.70;1.00;;;;;;5145331;27;20030;-55
2022/06/21 09:29:26;;;;;;;8.73;5.93;;;30.00;1.00;;;;;;5133730;27;20487;-55
2022/06/21 09:32:19;;;;;;;9.02;4.97;;;29.80;1.00;;;;;;5152163;27;20071;-55
2022/06/21 09:35:22;;;;;;;5.57;4.90;;;30.10;1.00;;;;;;5153354;27;20111;-55
2022/06/21 09:38:21;;;;;;;7.15;5.20;;;30.40;1.00;;;;;;5145343;27;20361;-53
2022/06/21 09:41:05;;;;;;;5.78;4.97;;;30.50;1.00;;;;;;5139256;27;20030;-54
2022/06/21 09:44:11;;;;;;;8.30;5.18;;;30.40;1.00;;;;;;5146665;27;20058;-54
2022/06/21 09:46:59;;;;;;;5.80;5.07;;;30.50;1.00;;;;;;5145758;27;20475;-53
2022/06/21 09:49:43;;;;;;;8.07;4.95;;;30.50;1.00;;;;;;5148530;27;20110;-55
2022/06/21 09:52:15;;;;;;;7.60;4.68;;;30.40;1.00;;;;;;5133904;27;20058;-52
2022/06/21 09:54:59;;;;;;;7.82;4.80;;;30.40;1.00;;;;;;5153236;27;20014;-53
2022/06/21 09:57:34;;;;;;;11.05;4.88;;;30.40;1.00;;;;;;5151177;27;20441;-53
2022/06/21 10:00:16;;;;;;;8.57;5.72;;;30.60;1.00;;;;;;5153200;27;20357;-53
2022/06/21 10:03:19;;;;;;;9.02;5.85;;;30.60;1.00;;;;;;5136909;27;20441;-55
2022/06/21 10:06:16;;;;;;;6.13;5.38;;;30.50;1.00;;;;;;5139286;27;20190;-54
2022/06/21 10:09:00;;;;;;;9.75;5.38;;;30.70;1.00;;;;;;5138330;27;20079;-54
2022/06/21 10:11:36;;;;;;;6.32;5.20;;;31.00;1.00;;;;;;5152069;27;20133;-54
2022/06/21 10:14:21;;;;;;;6.15;5.55;;;30.80;1.00;;;;;;5151454;27;20019;-55
2022/06/21 10:17:06;;;;;;;6.88;5.15;;;30.90;1.00;;;;;;5148109;27;20034;-55
2022/06/21 10:19:52;;;;;;;8.48;5.25;;;31.00;1.00;;;;;;5140441;27;20031;-53
2022/06/21 10:22:39;;;;;;;9.45;5.70;;;31.00;1.00;;;;;;5150877;27;20027;-53
2022/06/21 10:25:11;;;;;;;6.68;5.18;;;31.50;1.00;;;;;;5150613;27;20026;-51
2022/06/21 10:28:03;;;;;;;9.35;4.68;;;31.60;1.00;;;;;;5148469;27;20035;-50
2022/06/21 10:30:35;;;;;;;10.63;5.43;;;31.70;1.00;;;;;;5106848;27;20383;-54
2022/06/21 10:33:31;;;;;;;6.82;4.78;;;31.40;1.00;;;;;;5151647;27;20464;-51
2022/06/21 10:36:27;;;;;;;7.50;4.88;;;31.80;1.00;;;;;;5152635;27;20316;-54
2022/06/21 10:39:08;;;;;;;8.73;4.75;;;32.10;1.00;;;;;;5151777;27;20027;-53
2022/06/21 10:44:59;;;;;;;8.57;5.15;;;31.90;1.00;;;;;;5148080;27;20530;-49
2022/06/21 10:47:52;;;;;;;8.70;6.45;;;31.70;1.00;;;;;;5141575;27;20042;-49
2022/06/21 10:50:30;;;;;;;8.10;5.37;;;31.80;1.00;;;;;;5128152;27;20038;-53
2022/06/21 10:53:25;;;;;;;7.22;5.47;;;31.80;1.00;;;;;;5154488;27;20336;-50
2022/06/21 10:59:22;;;;;;;10.88;7.22;;;32.10;1.00;;;;;;5066500;28;20571;-52
2022/06/21 11:02:15;;;;;;;5.97;5.05;;;32.50;1.00;;;;;;5144186;27;20043;-52
2022/06/21 11:05:00;;;;;;;6.32;5.65;;;32.70;1.00;;;;;;5136130;27;20333;-51
2022/06/21 11:07:58;;;;;;;9.98;5.55;;;32.30;1.00;;;;;;5147979;27;21504;-51
2022/06/21 11:10:31;;;;;;;9.57;5.88;;;32.50;1.00;;;;;;5139013;27;20178;-48
2022/06/21 11:13:04;;;;;;;8.35;6.38;;;32.50;1.00;;;;;;5154410;27;20019;-49
2022/06/21 11:15:36;;;;;;;12.70;7.43;;;32.80;1.00;;;;;;5139963;27;20046;-49
2022/06/21 11:18:22;;;;;;;10.07;5.95;;;32.60;1.00;;;;;;5149766;27;20455;-48
2022/06/21 11:21:15;;;;;;;9.68;6.57;;;32.80;1.00;;;;;;5147761;27;20059;-53
2022/06/21 11:23:52;;;;;;;7.53;6.00;;;34.80;1.00;;;;;;5145366;27;20158;-50
2022/06/21 11:26:32;;;;;;;8.82;5.97;;;36.20;1.00;;;;;;5153517;27;20586;-50
2022/06/21 11:29:10;;;;;;;6.55;5.82;;;36.50;1.00;;;;;;5154320;27;20384;-49
2022/06/21 11:32:04;;;;;;;12.23;7.90;;;36.50;1.00;;;;;;5148966;27;20034;-52
2022/06/21 11:34:51;;;;;;;8.63;6.30;;;35.70;1.00;;;;;;5144609;27;20037;-51
2022/06/21 11:37:16;;;;;;;7.95;6.25;;;34.90;1.00;;;;;;5141610;27;20034;-50
2022/06/21 11:39:53;;;;;;;9.68;6.03;;;34.80;1.00;;;;;;5149720;27;20031;-50
2022/06/21 11:42:29;;;;;;;8.43;6.13;;;34.60;1.00;;;;;;5147772;27;20038;-52
2022/06/21 11:45:07;;;;;;;8.27;5.72;;;34.30;1.00;;;;;;5150896;27;20101;-46
2022/06/21 11:47:48;;;;;;;7.15;6.25;;;34.60;1.00;;;;;;5143399;27;20027;-47
2022/06/21 11:50:24;;;;;;;7.18;6.00;;;34.00;1.00;;;;;;5150804;27;20030;-49
2022/06/21 11:53:08;;;;;;;6.85;6.15;;;33.90;1.00;;;;;;5147352;27;20027;-53
2022/06/21 11:56:01;;;;;;;7.47;5.68;;;34.10;1.00;;;;;;5152145;27;20456;-48
2022/06/21 11:58:48;;;;;;;7.03;6.05;;;34.30;1.00;;;;;;5151508;27;20120;-47
2022/06/21 12:01:28;;;;;;;11.00;6.63;;;34.30;1.00;;;;;;5134286;27;20770;-47
2022/06/21 12:04:12;;;;;;;8.95;6.05;;;35.10;1.00;;;;;;5145125;27;20212;-48
2022/06/21 12:06:48;;;;;;;7.63;6.25;;;34.50;1.00;;;;;;5135168;27;20026;-52
2022/06/21 12:09:38;;;;;;;7.65;6.43;;;34.40;1.00;;;;;;5141110;27;20513;-48
2022/06/21 12:12:41;;;;;;;10.85;6.90;;;34.40;1.00;;;;;;5153909;27;20499;-49
2022/06/21 12:15:44;;;;;;;8.00;6.07;;;34.30;1.00;;;;;;5153614;27;20031;-50
2022/06/21 12:18:20;;;;;;;9.77;6.38;;;34.10;1.00;;;;;;5140892;27;20142;-51
2022/06/21 12:21:14;;;;;;;14.02;6.18;;;34.50;1.00;;;;;;5152658;27;20034;-48
2022/06/21 12:23:44;;;;;;;7.68;6.30;;;34.60;1.00;;;;;;5153794;27;20483;-49
2022/06/21 12:26:25;;;;;;;8.75;6.63;;;34.70;1.00;;;;;;5152218;27;20126;-49
2022/06/21 12:28:52;;;;;;;10.00;6.32;;;34.70;1.00;;;;;;5153646;27;20448;-48
2022/06/21 12:31:29;;;;;;;7.25;6.40;;;34.10;1.00;;;;;;5153678;27;20035;-48
2022/06/21 12:34:05;;;;;;;9.20;6.22;;;34.20;1.00;;;;;;5154038;27;20022;-51
2022/06/21 12:36:55;;;;;;;8.25;5.97;;;34.30;1.00;;;;;;5153756;27;20019;-53
2022/06/21 12:39:41;;;;;;;9.63;6.85;;;34.20;1.00;;;;;;5153286;27;20027;-48
2022/06/21 12:42:22;;;;;;;7.80;6.68;;;34.10;1.00;;;;;;5132737;27;20092;-51
2022/06/21 12:45:18;;;;;;;9.45;6.68;;;33.80;1.00;;;;;;5152796;27;20475;-51
2022/06/21 12:47:55;;;;;;;10.45;7.22;;;33.90;1.00;;;;;;5132482;27;20035;-52
2022/06/21 12:50:27;;;;;;;11.02;6.72;;;34.10;1.00;;;;;;5146545;27;20038;-51
2022/06/21 12:53:07;;;;;;;8.85;5.85;;;34.10;1.00;;;;;;5139494;27;20034;-52
2022/06/21 12:56:10;;;;;;;10.63;5.63;;;34.10;1.00;;;;;;5153136;27;20460;-53
2022/06/21 12:59:05;;;;;;;9.77;5.63;;;34.20;1.00;;;;;;5153333;27;20025;-51
2022/06/21 13:02:14;;;;;;;10.90;6.47;;;34.30;1.00;;;;;;5140321;27;20051;-51
2022/06/21 13:04:58;;;;;;;8.52;5.70;;;34.20;1.00;;;;;;5152273;27;20386;-54
2022/06/21 13:07:56;;;;;;;7.03;6.10;;;34.00;1.00;;;;;;5142988;27;20015;-51
2022/06/21 13:10:34;;;;;;;8.93;6.63;;;34.10;1.00;;;;;;5132889;27;20050;-51
2022/06/21 13:13:06;;;;;;;6.65;5.57;;;33.80;1.00;;;;;;5150950;27;20075;-51
2022/06/21 13:15:44;;;;;;;10.00;5.70;;;33.70;1.00;;;;;;5144021;27;20023;-53
2022/06/21 13:18:38;;;;;;;15.30;6.95;;;33.80;1.00;;;;;;5151457;27;20026;-54
2022/06/21 13:21:25;;;;;;;9.43;6.38;;;33.60;1.00;;;;;;5153205;27;20061;-54
2022/06/21 13:24:03;;;;;;;8.50;6.10;;;33.70;1.00;;;;;;5141148;27;20410;-54
2022/06/21 13:26:53;;;;;;;10.52;6.78;;;33.90;1.00;;;;;;5137007;27;20030;-54
2022/06/21 13:29:29;;;;;;;7.50;6.20;;;34.00;1.00;;;;;;5153479;27;20302;-53
2022/06/21 13:31:58;;;;;;;7.53;6.30;;;33.90;1.00;;;;;;5153356;27;20037;-48
2022/06/21 13:34:41;;;;;;;10.88;5.53;;;33.90;1.00;;;;;;5153603;27;20102;-52
2022/06/21 13:37:44;;;;;;;7.53;5.55;;;33.80;1.00;;;;;;5139893;27;20196;-50
2022/06/21 13:40:22;;;;;;;7.38;5.40;;;33.70;1.00;;;;;;5109334;27;20035;-49
2022/06/21 13:43:01;;;;;;;10.27;5.85;;;33.70;1.00;;;;;;5140894;27;20114;-50
2022/06/21 13:45:43;;;;;;;12.85;6.10;;;33.80;1.00;;;;;;5145266;27;20035;-49
2022/06/21 13:48:43;;;;;;;12.25;6.07;;;33.90;1.00;;;;;;5146672;27;20498;-48
2022/06/21 13:51:18;;;;;;;11.43;6.10;;;33.80;1.00;;;;;;5142946;27;20038;-53
2022/06/21 13:53:53;;;;;;;7.82;5.88;;;34.00;1.00;;;;;;5136394;27;20026;-51
2022/06/21 13:56:26;;;;;;;8.00;5.80;;;34.00;1.00;;;;;;5152399;27;20027;-52
2022/06/21 13:58:57;;;;;;;8.40;5.47;;;34.20;1.00;;;;;;5153444;27;20023;-51
2022/06/21 14:01:41;;;;;;;15.68;6.10;;;34.70;1.00;;;;;;5151988;27;20035;-50
2022/06/21 14:04:40;;;;;;;9.20;5.75;;;34.30;1.00;;;;;;5153616;27;20023;-51
2022/06/21 14:07:18;;;;;;;9.57;5.43;;;34.50;1.00;;;;;;5148666;27;20027;-52
2022/06/21 14:09:52;;;;;;;8.68;5.50;;;34.50;1.00;;;;;;5151241;27;20111;-52
2022/06/21 14:12:56;;;;;;;7.85;5.13;;;34.50;1.00;;;;;;5156904;27;20060;-49